Karen Pape — WDF9420 — position and weather

sailwx.info

Track history (hours):
 
Tides and Currents Weather Stations Pressure Air Temp Water Temp Dewpoint Dewpoint Depression Visibility Wind Speed Wind Dir Waves Ship Positions

Karen Pape

Owner: Genesis Marine, LLC, Houston, TX. More information available from US FCC via Universal Licensing System and Coast Guard Vessel Documentation Center.

Last reported at 2017-Sep-21 07:17 UTC. Time now 2017-Sep-21 08:59 UTC.
Position N 29°34' W 090°23'.

; draft 3 m.

Type: Towing. MMSI: 367504970.

Date/timePositionNaut miles runAvg speedWind from/ knotsBaromVisibWave heightAir tempDewpointWater temp
2017-Sep-21 07:17N 29°34' W 090°23'1 3.8
2017-Sep-21 06:59N 29°33' W 090°24'2 3.9
2017-Sep-21 06:29N 29°33' W 090°27'2 5.1
2017-Sep-21 06:00N 29°34' W 090°29'3 5.2
2017-Sep-21 05:30N 29°34' W 090°32'2 4.4
2017-Sep-21 05:00N 29°34' W 090°35'2 3.7
2017-Sep-21 04:30N 29°35' W 090°37'3 5.2
2017-Sep-21 04:00N 29°36' W 090°39'2 4.7
2017-Sep-21 03:30N 29°37' W 090°42'2 4.2
2017-Sep-21 03:00N 29°35' W 090°43'1 2.9
2017-Sep-21 02:30N 29°34' W 090°44'1 2.7
2017-Sep-21 02:00N 29°33' W 090°45'3 5.1
2017-Sep-21 01:30N 29°32' W 090°48'3 6.0
2017-Sep-21 01:00N 29°32' W 090°52'3 5.8
2017-Sep-21 00:30N 29°33' W 090°55'3 5.8
2017-Sep-20 23:59N 29°35' W 090°58'56 4.5
2017-Sep-20 11:36N 29°50' W 091°60'1 5.2
2017-Sep-20 11:28N 29°50' W 092°01'2 5.2
2017-Sep-20 11:00N 29°49' W 092°03'3 5.3
2017-Sep-20 10:30N 29°48' W 092°06'3 5.1
2017-Sep-20 10:00N 29°47' W 092°09'2 4.2
2017-Sep-20 09:30N 29°47' W 092°11'2 3.5
2017-Sep-20 09:00N 29°47' W 092°13'2 4.7
2017-Sep-20 08:30N 29°48' W 092°16'2 4.7
2017-Sep-20 08:00N 29°50' W 092°18'2 5.0
2017-Sep-20 07:30N 29°51' W 092°21'4 4.4
2017-Sep-20 06:42N 29°53' W 092°24'35 5.0
2017-Sep-19 23:43N 29°56' W 093°04'1 4.8
2017-Sep-19 23:30N 29°56' W 093°05'2 4.8
2017-Sep-19 23:00N 29°56' W 093°08'2 4.6
2017-Sep-19 22:30N 29°57' W 093°10'2 4.9
2017-Sep-19 22:00N 29°59' W 093°12'2 4.7
2017-Sep-19 21:30N 30°00' W 093°14'2 3.1
2017-Sep-19 21:00N 30°02' W 093°15'2 3.5
2017-Sep-19 20:30N 30°03' W 093°16'2 4.8
2017-Sep-19 20:00N 30°05' W 093°17'1 2.8
2017-Sep-19 19:30N 30°06' W 093°19'2 4.8
2017-Sep-19 19:00N 30°04' W 093°20'2 4.2
2017-Sep-19 18:30N 30°04' W 093°23'3 5.4
2017-Sep-19 18:00N 30°04' W 093°26'3 5.5
2017-Sep-19 17:30N 30°04' W 093°29'3 5.5
2017-Sep-19 17:00N 30°04' W 093°32'3 5.3
2017-Sep-19 16:30N 30°04' W 093°35'3 5.8
2017-Sep-19 16:00N 30°04' W 093°39'3 6.1
2017-Sep-19 15:30N 30°03' W 093°42'70 4.4
2017-Sep-18 23:33N 29°29' W 094°52'0 6.0
2017-Sep-18 23:30N 29°29' W 094°52'3 6.2
2017-Sep-18 23:00N 29°32' W 094°53'3 6.2
2017-Sep-18 22:30N 29°34' W 094°55'3 5.8
2017-Sep-18 22:00N 29°36' W 094°57'3 6.3
2017-Sep-18 21:30N 29°39' W 094°58'2 5.0
2017-Sep-18 21:00N 29°42' W 094°60'3 5.1
2017-Sep-18 20:29N 29°44' W 095°02'3 5.7
2017-Sep-18 20:00N 29°45' W 095°04'2 2.6
2017-Sep-18 19:17N 29°47' W 095°04'0 0.6
2017-Sep-18 19:00N 29°47' W 095°04'0 0.8
2017-Sep-18 18:30N 29°47' W 095°04'0 0.6
2017-Sep-18 17:49N 29°47' W 095°04'2 5.3
2017-Sep-18 17:30N 29°46' W 095°05'0 0.0
2017-Sep-17 11:51N 29°46' W 095°05'2 6.7
2017-Sep-17 11:30N 29°44' W 095°03'1 1.3
2017-Sep-17 11:00N 29°44' W 095°03'3 4.8
2017-Sep-17 10:28N 29°46' W 095°05'1 0.2
2017-Sep-17 07:44N 29°45' W 095°06'1 2.3
2017-Sep-17 07:29N 29°46' W 095°06'0 0.3
2017-Sep-17 06:07N 29°46' W 095°06'0 0.0
2017-Sep-17 05:14N 29°46' W 095°06'0 0.0
2017-Sep-17 04:49N 29°46' W 095°06'0 0.0
2017-Sep-17 04:30N 29°46' W 095°06'0 0.0
2017-Sep-16 20:42N 29°46' W 095°06'0 0.0
2017-Sep-16 20:27N 29°46' W 095°06'0 0.0
2017-Sep-16 20:00N 29°46' W 095°06'0 0.0
2017-Sep-16 19:16N 29°46' W 095°06'0 0.0
2017-Sep-16 18:52N 29°46' W 095°06'0 0.0
2017-Sep-16 18:20N 29°46' W 095°06'1 1.6
2017-Sep-16 17:51N 29°46' W 095°05'2 3.9
2017-Sep-16 17:28N 29°47' W 095°04'1 2.2
2017-Sep-16 16:49N 29°46' W 095°05'3 6.5
2017-Sep-16 16:19N 29°44' W 095°08'2 7.0
2017-Sep-16 16:00N 29°45' W 095°11'5 1.4
2017-Sep-16 12:09N 29°43' W 095°16'0 0.0
2017-Sep-16 11:56N 29°43' W 095°16'0 0.0
2017-Sep-16 11:29N 29°43' W 095°16'0 0.0
2017-Sep-16 11:00N 29°43' W 095°16'0 0.0
2017-Sep-16 10:30N 29°43' W 095°16'0 0.0
2017-Sep-16 05:25N 29°43' W 095°16'0 0.0
2017-Sep-16 05:00N 29°43' W 095°16'0 0.0
2017-Sep-16 02:59N 29°43' W 095°16'0 0.0
2017-Sep-16 02:20N 29°43' W 095°16'0 0.0
2017-Sep-16 00:11N 29°43' W 095°16'0 0.0
2017-Sep-15 23:39N 29°43' W 095°16'0 0.0
2017-Sep-15 23:14N 29°43' W 095°16'0 0.0
2017-Sep-15 22:50N 29°43' W 095°16'0 0.0
2017-Sep-15 22:26N 29°43' W 095°16'0 0.0
2017-Sep-15 20:07N 29°43' W 095°16'1 2.7
2017-Sep-15 19:40N 29°43' W 095°15'0 0.0
2017-Sep-15 19:29N 29°43' W 095°15'0 0.0
2017-Sep-15 19:00N 29°43' W 095°15'0 0.0
2017-Sep-15 18:30N 29°43' W 095°15'0 0.0
2017-Sep-15 17:59N 29°43' W 095°15'0 0.0
2017-Sep-15 17:11N 29°43' W 095°15'0 0.0
2017-Sep-15 16:57N 29°43' W 095°15'3 1.0
2017-Sep-15 13:44N 29°44' W 095°12'2 6.8
2017-Sep-15 13:28N 29°45' W 095°10'3 6.5
2017-Sep-15 12:59N 29°45' W 095°06'2 4.6
2017-Sep-15 12:30N 29°45' W 095°04'3 5.9
2017-Sep-15 12:00N 29°43' W 095°01'3 6.8
2017-Sep-15 11:30N 29°40' W 094°59'4 7.6
2017-Sep-15 11:00N 29°37' W 094°57'4 7.7
2017-Sep-15 10:30N 29°33' W 094°55'4 8.1
2017-Sep-15 10:00N 29°30' W 094°52'  
Track history (hours):
 
Tides and Currents Weather Stations Pressure Air Temp Water Temp Dewpoint Dewpoint Depression Visibility Wind Speed Wind Dir Waves Ship Positions

Karen Pape

Owner: Genesis Marine, LLC, Houston, TX. More information available from US FCC via Universal Licensing System and Coast Guard Vessel Documentation Center.

Last reported at 2017-Sep-21 07:17 UTC. Time now 2017-Sep-21 08:59 UTC.
Position N 29°34' W 090°23'.

; draft 3 m.

Type: Towing. MMSI: 367504970.

Date/timePositionNaut miles runAvg speedWind from/ knotsBaromVisibWave heightAir tempDewpointWater temp
2017-Sep-21 07:17N 29°34' W 090°23'1 3.8
2017-Sep-21 06:59N 29°33' W 090°24'2 3.9
2017-Sep-21 06:29N 29°33' W 090°27'2 5.1
2017-Sep-21 06:00N 29°34' W 090°29'3 5.2
2017-Sep-21 05:30N 29°34' W 090°32'2 4.4
2017-Sep-21 05:00N 29°34' W 090°35'2 3.7
2017-Sep-21 04:30N 29°35' W 090°37'3 5.2
2017-Sep-21 04:00N 29°36' W 090°39'2 4.7
2017-Sep-21 03:30N 29°37' W 090°42'2 4.2
2017-Sep-21 03:00N 29°35' W 090°43'1 2.9
2017-Sep-21 02:30N 29°34' W 090°44'1 2.7
2017-Sep-21 02:00N 29°33' W 090°45'3 5.1
2017-Sep-21 01:30N 29°32' W 090°48'3 6.0
2017-Sep-21 01:00N 29°32' W 090°52'3 5.8
2017-Sep-21 00:30N 29°33' W 090°55'3 5.8
2017-Sep-20 23:59N 29°35' W 090°58'56 4.5
2017-Sep-20 11:36N 29°50' W 091°60'1 5.2
2017-Sep-20 11:28N 29°50' W 092°01'2 5.2
2017-Sep-20 11:00N 29°49' W 092°03'3 5.3
2017-Sep-20 10:30N 29°48' W 092°06'3 5.1
2017-Sep-20 10:00N 29°47' W 092°09'2 4.2
2017-Sep-20 09:30N 29°47' W 092°11'2 3.5
2017-Sep-20 09:00N 29°47' W 092°13'2 4.7
2017-Sep-20 08:30N 29°48' W 092°16'2 4.7
2017-Sep-20 08:00N 29°50' W 092°18'2 5.0
2017-Sep-20 07:30N 29°51' W 092°21'4 4.4
2017-Sep-20 06:42N 29°53' W 092°24'35 5.0
2017-Sep-19 23:43N 29°56' W 093°04'1 4.8
2017-Sep-19 23:30N 29°56' W 093°05'2 4.8
2017-Sep-19 23:00N 29°56' W 093°08'2 4.6
2017-Sep-19 22:30N 29°57' W 093°10'2 4.9
2017-Sep-19 22:00N 29°59' W 093°12'2 4.7
2017-Sep-19 21:30N 30°00' W 093°14'2 3.1
2017-Sep-19 21:00N 30°02' W 093°15'2 3.5
2017-Sep-19 20:30N 30°03' W 093°16'2 4.8
2017-Sep-19 20:00N 30°05' W 093°17'1 2.8
2017-Sep-19 19:30N 30°06' W 093°19'2 4.8
2017-Sep-19 19:00N 30°04' W 093°20'2 4.2
2017-Sep-19 18:30N 30°04' W 093°23'3 5.4
2017-Sep-19 18:00N 30°04' W 093°26'3 5.5
2017-Sep-19 17:30N 30°04' W 093°29'3 5.5
2017-Sep-19 17:00N 30°04' W 093°32'3 5.3
2017-Sep-19 16:30N 30°04' W 093°35'3 5.8
2017-Sep-19 16:00N 30°04' W 093°39'3 6.1
2017-Sep-19 15:30N 30°03' W 093°42'70 4.4
2017-Sep-18 23:33N 29°29' W 094°52'0 6.0
2017-Sep-18 23:30N 29°29' W 094°52'3 6.2
2017-Sep-18 23:00N 29°32' W 094°53'3 6.2
2017-Sep-18 22:30N 29°34' W 094°55'3 5.8
2017-Sep-18 22:00N 29°36' W 094°57'3 6.3
2017-Sep-18 21:30N 29°39' W 094°58'2 5.0
2017-Sep-18 21:00N 29°42' W 094°60'3 5.1
2017-Sep-18 20:29N 29°44' W 095°02'3 5.7
2017-Sep-18 20:00N 29°45' W 095°04'2 2.6
2017-Sep-18 19:17N 29°47' W 095°04'0 0.6
2017-Sep-18 19:00N 29°47' W 095°04'0 0.8
2017-Sep-18 18:30N 29°47' W 095°04'0 0.6
2017-Sep-18 17:49N 29°47' W 095°04'2 5.3
2017-Sep-18 17:30N 29°46' W 095°05'0 0.0
2017-Sep-17 11:51N 29°46' W 095°05'2 6.7
2017-Sep-17 11:30N 29°44' W 095°03'1 1.3
2017-Sep-17 11:00N 29°44' W 095°03'3 4.8
2017-Sep-17 10:28N 29°46' W 095°05'1 0.2
2017-Sep-17 07:44N 29°45' W 095°06'1 2.3
2017-Sep-17 07:29N 29°46' W 095°06'0 0.3
2017-Sep-17 06:07N 29°46' W 095°06'0 0.0
2017-Sep-17 05:14N 29°46' W 095°06'0 0.0
2017-Sep-17 04:49N 29°46' W 095°06'0 0.0
2017-Sep-17 04:30N 29°46' W 095°06'0 0.0
2017-Sep-16 20:42N 29°46' W 095°06'0 0.0
2017-Sep-16 20:27N 29°46' W 095°06'0 0.0
2017-Sep-16 20:00N 29°46' W 095°06'0 0.0
2017-Sep-16 19:16N 29°46' W 095°06'0 0.0
2017-Sep-16 18:52N 29°46' W 095°06'0 0.0
2017-Sep-16 18:20N 29°46' W 095°06'1 1.6
2017-Sep-16 17:51N 29°46' W 095°05'2 3.9
2017-Sep-16 17:28N 29°47' W 095°04'1 2.2
2017-Sep-16 16:49N 29°46' W 095°05'3 6.5
2017-Sep-16 16:19N 29°44' W 095°08'2 7.0
2017-Sep-16 16:00N 29°45' W 095°11'5 1.4
2017-Sep-16 12:09N 29°43' W 095°16'0 0.0
2017-Sep-16 11:56N 29°43' W 095°16'0 0.0
2017-Sep-16 11:29N 29°43' W 095°16'0 0.0
2017-Sep-16 11:00N 29°43' W 095°16'0 0.0
2017-Sep-16 10:30N 29°43' W 095°16'0 0.0
2017-Sep-16 05:25N 29°43' W 095°16'0 0.0
2017-Sep-16 05:00N 29°43' W 095°16'0 0.0
2017-Sep-16 02:59N 29°43' W 095°16'0 0.0
2017-Sep-16 02:20N 29°43' W 095°16'0 0.0
2017-Sep-16 00:11N 29°43' W 095°16'0 0.0
2017-Sep-15 23:39N 29°43' W 095°16'0 0.0
2017-Sep-15 23:14N 29°43' W 095°16'0 0.0
2017-Sep-15 22:50N 29°43' W 095°16'0 0.0
2017-Sep-15 22:26N 29°43' W 095°16'0 0.0
2017-Sep-15 20:07N 29°43' W 095°16'1 2.7
2017-Sep-15 19:40N 29°43' W 095°15'0 0.0
2017-Sep-15 19:29N 29°43' W 095°15'0 0.0
2017-Sep-15 19:00N 29°43' W 095°15'0 0.0
2017-Sep-15 18:30N 29°43' W 095°15'0 0.0
2017-Sep-15 17:59N 29°43' W 095°15'0 0.0
2017-Sep-15 17:11N 29°43' W 095°15'0 0.0
2017-Sep-15 16:57N 29°43' W 095°15'3 1.0
2017-Sep-15 13:44N 29°44' W 095°12'2 6.8
2017-Sep-15 13:28N 29°45' W 095°10'3 6.5
2017-Sep-15 12:59N 29°45' W 095°06'2 4.6
2017-Sep-15 12:30N 29°45' W 095°04'3 5.9
2017-Sep-15 12:00N 29°43' W 095°01'3 6.8
2017-Sep-15 11:30N 29°40' W 094°59'4 7.6
2017-Sep-15 11:00N 29°37' W 094°57'4 7.7
2017-Sep-15 10:30N 29°33' W 094°55'4 8.1
2017-Sep-15 10:00N 29°30' W 094°52'  

Dump ship's entire track history